Time;durP1;ratioP1;P1;durP2;ratioP2;P2;SDS_P1;SDS_P2;PMS_P1;PMS_P2;Temp;Humidity;BMP_temperature;BMP_pressure;BME280_temperature;BME280_humidity;BME280_pressure;Samples;Min_cycle;Max_cycle;Signal;HPM_P1;HPM_P2
2023/01/07 00:00:52;;;;;;;0.77;0.47;;;;;;;3.42;99.67;99922.47;5110315;28;20201;-60
2023/01/07 00:03:19;;;;;;;0.23;0.23;;;;;;;3.44;99.40;99928.34;5109968;28;20219;-60
2023/01/07 00:05:46;;;;;;;0.20;0.20;;;;;;;3.44;99.31;99933.38;5110006;28;20205;-60
2023/01/07 00:08:12;;;;;;;0.63;0.53;;;;;;;3.34;99.26;99932.81;5109648;28;20197;-60
2023/01/07 00:10:39;;;;;;;0.93;0.73;;;;;;;3.33;99.56;99943.81;5110013;28;20232;-60
2023/01/07 00:13:06;;;;;;;0.93;0.40;;;;;;;3.42;99.42;99926.72;5109963;28;20206;-60
2023/01/07 00:15:34;;;;;;;0.27;0.27;;;;;;;3.37;99.52;99935.28;5110194;28;20193;-60
2023/01/07 00:18:01;;;;;;;0.47;0.47;;;;;;;3.34;99.64;99940.38;5109479;28;20208;-60
2023/01/07 00:20:28;;;;;;;0.67;0.67;;;;;;;3.32;99.68;99939.63;5110087;28;20209;-59
2023/01/07 00:22:55;;;;;;;1.20;0.47;;;;;;;3.36;99.68;99943.72;5110049;28;20220;-60
2023/01/07 00:25:22;;;;;;;2.03;0.67;;;;;;;3.31;99.53;99940.47;5110148;28;20298;-60
2023/01/07 00:27:49;;;;;;;0.30;0.30;;;;;;;3.35;99.39;99947.13;5109711;28;20193;-60
2023/01/07 00:30:15;;;;;;;0.57;0.57;;;;;;;3.27;99.47;99941.44;5109771;28;20237;-60
2023/01/07 00:33:03;;;;;;;0.40;0.40;;;;;;;3.35;99.42;99937.00;5109327;28;20201;-60
2023/01/07 00:35:32;;;;;;;1.00;0.50;;;;;;;3.30;99.59;99943.88;5109920;28;20197;-60
2023/01/07 00:37:59;;;;;;;1.40;0.90;;;;;;;3.26;99.54;99949.91;5109398;28;20233;-60
2023/01/07 00:40:26;;;;;;;0.40;0.40;;;;;;;3.26;99.62;99949.91;5111512;28;20217;-60
2023/01/07 00:43:00;;;;;;;0.33;0.33;;;;;;;3.29;99.64;99944.78;5113642;28;20194;-60
2023/01/07 00:45:28;;;;;;;1.13;1.03;;;;;;;3.21;99.49;99954.25;5114067;28;20604;-60
2023/01/07 00:47:57;;;;;;;0.23;0.23;;;;;;;3.17;99.70;99951.00;5113419;28;20197;-60
2023/01/07 00:50:26;;;;;;;0.30;0.30;;;;;;;3.21;99.78;99955.97;5113515;28;20224;-59
2023/01/07 00:52:53;;;;;;;0.73;0.50;;;;;;;3.29;99.52;99956.59;5113253;28;20196;-60
2023/01/07 00:55:20;;;;;;;0.20;0.20;;;;;;;3.27;99.28;99959.13;5113434;28;20720;-59
2023/01/07 00:57:47;;;;;;;0.20;0.20;;;;;;;3.29;99.23;99951.53;5113067;28;20201;-60
2023/01/07 01:00:16;;;;;;;0.20;0.20;;;;;;;3.31;98.96;99950.59;5113005;28;20217;-60
2023/01/07 01:02:44;;;;;;;0.70;0.70;;;;;;;3.27;98.77;99951.56;5113300;28;20313;-59
2023/01/07 01:05:12;;;;;;;0.20;0.20;;;;;;;3.24;98.57;99953.34;5113072;28;20232;-60
2023/01/07 01:07:40;;;;;;;0.30;0.30;;;;;;;3.21;98.57;99954.25;5113450;28;20584;-60
2023/01/07 01:10:11;;;;;;;0.93;0.93;;;;;;;3.17;98.65;99955.19;5112842;28;20239;-60
2023/01/07 01:12:38;;;;;;;0.80;0.80;;;;;;;3.14;99.03;99958.66;5112954;28;20658;-60
2023/01/07 01:15:07;;;;;;;1.20;0.40;;;;;;;3.13;99.03;99956.16;5112933;28;20720;-60
2023/01/07 01:17:34;;;;;;;1.73;0.50;;;;;;;3.10;99.12;99956.25;5112970;28;20193;-59
2023/01/07 01:20:01;;;;;;;1.30;0.60;;;;;;;3.08;99.41;99950.41;5112898;28;20221;-60
2023/01/07 01:22:30;;;;;;;3.23;0.60;;;;;;;3.09;99.65;99949.56;5113195;28;20284;-60
2023/01/07 01:24:56;;;;;;;0.57;0.40;;;;;;;2.92;100.00;99948.31;5112526;28;20220;-60
2023/01/07 01:27:23;;;;;;;1.30;0.97;;;;;;;2.84;100.00;99945.16;5112806;28;20197;-60
2023/01/07 01:29:51;;;;;;;1.03;0.93;;;;;;;2.95;100.00;99953.28;5112477;28;20732;-60
2023/01/07 01:32:18;;;;;;;0.87;0.87;;;;;;;2.97;100.00;99960.81;5112515;28;20208;-60
2023/01/07 01:34:45;;;;;;;0.90;0.47;;;;;;;3.00;100.00;99954.88;5112708;28;20532;-59
2023/01/07 01:37:11;;;;;;;2.27;0.43;;;;;;;2.93;100.00;99944.91;5112359;28;20681;-60
2023/01/07 01:39:40;;;;;;;2.37;1.37;;;;;;;2.93;100.00;99939.03;5112124;28;20217;-60
2023/01/07 01:42:09;;;;;;;1.27;0.77;;;;;;;2.99;100.00;99948.97;5112549;28;20201;-60
2023/01/07 01:44:41;;;;;;;1.00;0.60;;;;;;;3.08;99.94;99947.88;5112266;28;20240;-59
2023/01/07 01:47:22;;;;;;;0.53;0.53;;;;;;;3.09;99.74;99949.56;5112074;28;20193;-60
2023/01/07 01:49:55;;;;;;;0.63;0.63;;;;;;;3.00;99.08;99950.63;5112661;28;20723;-60
2023/01/07 01:52:27;;;;;;;0.50;0.50;;;;;;;2.97;99.37;99953.25;5111671;28;20382;-60
2023/01/07 01:54:59;;;;;;;0.53;0.53;;;;;;;2.99;99.10;99953.19;5112323;28;20217;-60
2023/01/07 01:57:28;;;;;;;1.37;0.70;;;;;;;2.90;99.16;99955.09;5112157;28;20195;-60
2023/01/07 01:59:57;;;;;;;0.40;0.40;;;;;;;2.85;98.98;99949.34;5111969;28;20223;-60
2023/01/07 02:02:29;;;;;;;0.40;0.40;;;;;;;2.66;99.57;99949.00;5112390;28;20216;-60
2023/01/07 02:04:57;;;;;;;0.50;0.50;;;;;;;2.71;100.00;99954.75;5111850;28;20213;-60
2023/01/07 02:07:25;;;;;;;0.30;0.30;;;;;;;2.61;100.00;99953.34;5112085;28;20201;-60
2023/01/07 02:10:00;;;;;;;0.60;0.60;;;;;;;2.61;100.00;99958.38;5112019;28;20217;-60
2023/01/07 02:12:46;;;;;;;1.10;1.10;;;;;;;2.59;100.00;99949.19;5111841;28;20238;-60
2023/01/07 02:15:15;;;;;;;0.73;0.73;;;;;;;2.52;100.00;99948.53;5111921;28;20272;-60
2023/01/07 02:17:56;;;;;;;0.50;0.50;;;;;;;2.48;100.00;99950.31;5111602;28;20197;-60
2023/01/07 02:20:44;;;;;;;0.73;0.73;;;;;;;2.46;100.00;99939.41;5111807;28;20226;-60
2023/01/07 02:24:09;;;;;;;0.40;0.40;;;;;;;2.23;100.00;99936.63;5111583;28;20208;-59
2023/01/07 02:27:09;;;;;;;1.03;0.70;;;;;;;2.09;100.00;99939.47;5111980;28;20201;-60
2023/01/07 02:30:15;;;;;;;0.60;0.60;;;;;;;2.08;100.00;99944.56;5111643;28;20217;-60
2023/01/07 02:33:11;;;;;;;0.83;0.83;;;;;;;2.08;100.00;99947.09;5111594;28;20196;-60
2023/01/07 02:35:53;;;;;;;1.60;1.30;;;;;;;1.97;100.00;99950.69;5111458;28;20205;-60
2023/01/07 02:38:33;;;;;;;1.63;1.03;;;;;;;1.98;100.00;99947.31;5111368;28;20308;-60
2023/01/07 02:41:08;;;;;;;1.53;1.00;;;;;;;1.99;100.00;99943.91;5111270;28;20201;-60
2023/01/07 02:43:42;;;;;;;2.13;1.30;;;;;;;2.04;100.00;99949.69;5111261;28;20224;-59
2023/01/07 02:46:19;;;;;;;0.47;0.47;;;;;;;2.02;100.00;99943.84;5111102;28;20201;-60
2023/01/07 02:48:48;;;;;;;1.40;0.77;;;;;;;1.92;100.00;99942.41;5110960;28;20217;-60
2023/01/07 02:51:15;;;;;;;1.10;1.00;;;;;;;1.88;100.00;99945.03;5110928;27;20244;-60
2023/01/07 02:53:46;;;;;;;2.50;1.10;;;;;;;1.80;100.00;99946.06;5111096;28;20225;-60
2023/01/07 02:56:27;;;;;;;0.43;0.43;;;;;;;1.85;100.00;99950.16;5111352;28;20205;-60
2023/01/07 02:59:12;;;;;;;1.10;0.70;;;;;;;1.79;100.00;99946.06;5111297;28;20629;-60
2023/01/07 03:02:08;;;;;;;1.30;0.70;;;;;;;1.81;100.00;99944.34;5110877;28;20205;-60
2023/01/07 03:04:57;;;;;;;1.23;1.00;;;;;;;1.85;100.00;99948.44;5109980;28;20213;-59
2023/01/07 03:07:36;;;;;;;1.50;0.93;;;;;;;1.79;100.00;99951.13;5110875;28;20208;-60
2023/01/07 03:10:10;;;;;;;0.83;0.83;;;;;;;1.76;100.00;99956.22;5110898;28;20224;-60
2023/01/07 03:12:43;;;;;;;0.10;0.10;;;;;;;1.65;100.00;99948.06;5110503;28;20232;-60
2023/01/07 03:15:17;;;;;;;1.37;1.27;;;;;;;1.57;100.00;99953.25;5110447;28;20224;-60
2023/01/07 03:17:52;;;;;;;1.77;1.03;;;;;;;1.51;100.00;99961.81;5110336;28;20201;-60
2023/01/07 03:20:23;;;;;;;0.77;0.77;;;;;;;1.47;100.00;99962.72;5110440;28;20216;-60
2023/01/07 03:22:52;;;;;;;0.67;0.67;;;;;;;1.45;100.00;99966.94;5110707;28;20605;-60
2023/01/07 03:25:22;;;;;;;2.60;1.27;;;;;;;1.44;100.00;99967.81;5110528;28;20224;-59
2023/01/07 03:27:51;;;;;;;1.03;0.73;;;;;;;1.43;100.00;99973.72;5110665;28;20729;-59
2023/01/07 03:30:19;;;;;;;0.60;0.60;;;;;;;1.28;100.00;99974.03;5110237;28;20217;-60
2023/01/07 03:32:54;;;;;;;0.90;0.87;;;;;;;1.27;100.00;99974.91;5110472;28;20239;-59
2023/01/07 03:35:24;;;;;;;0.70;0.70;;;;;;;1.27;100.00;99984.97;5110311;28;20726;-60
2023/01/07 03:37:53;;;;;;;1.13;0.73;;;;;;;1.29;100.00;99980.75;5110315;28;20205;-60
2023/01/07 03:40:21;;;;;;;3.40;1.20;;;;;;;1.22;100.00;99984.22;5110072;28;20709;-60
2023/01/07 03:42:47;;;;;;;0.50;0.50;;;;;;;1.15;100.00;99980.19;5110697;28;20284;-59
2023/01/07 03:45:17;;;;;;;0.80;0.80;;;;;;;1.05;100.00;99982.88;5110109;28;20233;-60
2023/01/07 03:47:48;;;;;;;1.60;1.23;;;;;;;1.03;100.00;99971.16;5110027;28;20205;-60
2023/01/07 03:50:15;;;;;;;1.20;1.13;;;;;;;0.98;100.00;99975.47;5110053;28;20217;-60
2023/01/07 03:55:29;;;;;;;0.73;0.73;;;;;;;0.75;100.00;99980.91;5110075;28;20458;-61
2023/01/07 03:57:56;;;;;;;0.63;0.63;;;;;;;0.68;100.00;99973.47;5109849;28;20201;-59
2023/01/07 04:00:23;;;;;;;0.97;0.70;;;;;;;0.70;100.00;99980.16;5109883;28;20197;-60
2023/01/07 04:02:50;;;;;;;1.77;1.40;;;;;;;0.70;100.00;99980.16;5109906;28;20204;-59
2023/01/07 04:05:17;;;;;;;0.53;0.53;;;;;;;0.66;100.00;99974.34;5110197;28;20213;-59
2023/01/07 04:07:45;;;;;;;0.73;0.73;;;;;;;0.59;100.00;99971.13;5109571;28;20209;-59
2023/01/07 04:10:12;;;;;;;0.50;0.50;;;;;;;0.60;100.00;99969.44;5109939;28;20239;-59
2023/01/07 04:12:39;;;;;;;1.00;0.70;;;;;;;0.60;100.00;99970.25;5109752;28;20228;-60
2023/01/07 04:15:07;;;;;;;0.60;0.50;;;;;;;0.61;100.00;99966.91;5111285;28;20216;-60
2023/01/07 04:17:33;;;;;;;0.87;0.63;;;;;;;0.59;100.00;99970.28;5113996;28;20581;-59
2023/01/07 04:20:00;;;;;;;3.83;1.10;;;;;;;0.46;100.00;99967.13;5113716;28;20600;-60
2023/01/07 04:22:27;;;;;;;3.17;2.13;;;;;;;0.43;100.00;99964.69;5113855;28;20200;-60
2023/01/07 04:24:56;;;;;;;1.67;1.53;;;;;;;0.42;100.00;99965.53;5113694;28;20221;-60
2023/01/07 04:27:23;;;;;;;3.90;1.53;;;;;;;0.41;100.00;99968.94;5113837;28;20201;-59
2023/01/07 04:29:50;;;;;;;1.30;0.93;;;;;;;0.44;100.00;99976.41;5113669;28;20239;-60
2023/01/07 04:32:17;;;;;;;0.67;0.67;;;;;;;0.36;100.00;99975.72;5113516;28;20713;-59
2023/01/07 04:34:44;;;;;;;1.57;0.90;;;;;;;0.27;100.00;99975.84;5113735;27;20591;-60
2023/01/07 04:37:10;;;;;;;0.77;0.77;;;;;;;0.26;100.00;99974.19;5113773;28;20201;-60
2023/01/07 04:39:37;;;;;;;1.40;1.30;;;;;;;0.29;100.00;99989.22;5113465;28;20209;-59
2023/01/07 04:42:06;;;;;;;1.37;1.13;;;;;;;0.30;100.00;99986.69;5113701;28;20672;-60
2023/01/07 04:44:32;;;;;;;0.80;0.80;;;;;;;0.32;100.00;99989.16;5113386;28;20608;-60
2023/01/07 04:46:59;;;;;;;5.20;0.87;;;;;;;0.33;100.00;99981.63;5113187;28;20586;-59
2023/01/07 04:49:26;;;;;;;7.87;1.20;;;;;;;0.30;100.00;99988.38;5113710;28;20218;-59
2023/01/07 04:51:53;;;;;;;1.43;1.33;;;;;;;0.26;100.00;99984.25;5113118;28;20236;-60
2023/01/07 04:54:20;;;;;;;3.60;1.93;;;;;;;0.25;100.00;99982.59;5113242;28;20712;-60
2023/01/07 04:56:47;;;;;;;1.47;0.97;;;;;;;0.24;100.00;99986.78;5113065;27;20201;-60
2023/01/07 04:59:15;;;;;;;0.87;0.83;;;;;;;0.24;100.00;99988.47;5113033;28;20261;-60
2023/01/07 05:01:42;;;;;;;2.30;1.63;;;;;;;0.24;100.00;99985.97;5113337;28;20193;-59
2023/01/07 05:04:09;;;;;;;2.83;1.40;;;;;;;0.24;100.00;99991.00;5112805;28;20209;-60
2023/01/07 05:06:35;;;;;;;2.27;1.20;;;;;;;0.26;100.00;99996.81;5113090;28;20201;-60
2023/01/07 05:09:02;;;;;;;1.93;1.40;;;;;;;0.26;100.00;99994.31;5112686;28;20227;-59
2023/01/07 05:11:29;;;;;;;0.43;0.43;;;;;;;0.28;100.00;99992.59;5113123;28;20240;-60
2023/01/07 05:14:00;;;;;;;1.73;1.17;;;;;;;0.27;100.00;99990.94;5112949;27;20701;-60
2023/01/07 05:16:28;;;;;;;4.17;1.00;;;;;;;0.25;100.00;99993.47;5112781;28;20202;-60
2023/01/07 05:18:55;;;;;;;2.77;1.03;;;;;;;0.28;100.00;100002.66;5112897;28;20217;-60
2023/01/07 05:21:22;;;;;;;4.83;0.97;;;;;;;0.30;100.00;100001.78;5112819;28;20208;-60
2023/01/07 05:23:49;;;;;;;0.73;0.73;;;;;;;0.23;100.00;100000.19;5112605;28;20225;-60
2023/01/07 05:26:15;;;;;;;0.93;0.87;;;;;;;0.19;100.00;100004.44;5111788;28;20693;-60
2023/01/07 05:28:42;;;;;;;0.57;0.57;;;;;;;0.24;100.00;100003.56;5112508;28;20351;-59
2023/01/07 05:31:09;;;;;;;0.60;0.57;;;;;;;0.22;100.00;100004.41;5112563;28;20201;-60
2023/01/07 05:33:37;;;;;;;1.47;1.37;;;;;;;0.24;100.00;100011.13;5112193;28;20228;-59
2023/01/07 05:36:04;;;;;;;0.40;0.40;;;;;;;0.24;100.00;100011.13;5112939;28;20201;-59
2023/01/07 05:38:31;;;;;;;1.73;0.70;;;;;;;0.25;100.00;100013.59;5112484;28;20688;-60
2023/01/07 05:40:58;;;;;;;1.17;1.07;;;;;;;0.17;100.00;100016.22;5112266;28;20204;-60
2023/01/07 05:43:25;;;;;;;0.97;0.87;;;;;;;0.11;100.00;100016.31;5112546;28;20232;-60
2023/01/07 05:45:52;;;;;;;0.60;0.60;;;;;;;0.10;100.00;100023.88;5112898;28;20204;-60
2023/01/07 05:48:19;;;;;;;1.27;1.17;;;;;;;0.06;100.00;100025.63;5112247;28;20216;-59
2023/01/07 05:50:47;;;;;;;4.23;1.30;;;;;;;-0.01;100.00;100024.03;5112470;28;20232;-60
2023/01/07 05:53:14;;;;;;;1.33;1.23;;;;;;;0.04;100.00;100024.81;5111988;28;20256;-60
2023/01/07 05:55:41;;;;;;;0.70;0.70;;;;;;;0.05;100.00;100026.44;5112135;28;20211;-59
2023/01/07 05:58:08;;;;;;;2.03;0.73;;;;;;;-0.06;100.00;100015.72;5111987;28;20287;-60
2023/01/07 06:00:36;;;;;;;1.33;1.13;;;;;;;-0.08;100.00;100019.94;5111911;28;20189;-60
2023/01/07 06:03:03;;;;;;;1.07;0.90;;;;;;;-0.06;100.00;100024.13;5111575;28;20662;-60
2023/01/07 06:05:30;;;;;;;0.93;0.90;;;;;;;-0.06;100.00;100015.72;5111908;28;20581;-59
2023/01/07 06:07:58;;;;;;;1.23;1.13;;;;;;;-0.06;100.00;100019.09;5111357;28;20712;-60
2023/01/07 06:10:25;;;;;;;0.67;0.67;;;;;;;0.01;100.00;100022.34;5111846;28;20189;-59
2023/01/07 06:12:52;;;;;;;1.43;0.90;;;;;;;-0.04;100.00;100027.41;5111670;28;20229;-59
2023/01/07 06:15:19;;;;;;;1.13;1.10;;;;;;;0.04;100.00;100024.81;5111688;28;20213;-60
2023/01/07 06:17:46;;;;;;;1.10;1.00;;;;;;;0.08;100.00;100021.38;5111555;28;20193;-59
2023/01/07 06:20:13;;;;;;;0.57;0.57;;;;;;;0.10;100.00;100019.69;5111291;28;20745;-60
2023/01/07 06:22:41;;;;;;;0.80;0.80;;;;;;;-0.01;100.00;100026.53;5111467;28;20548;-59
2023/01/07 06:25:10;;;;;;;0.50;0.50;;;;;;;-0.03;100.00;100020.69;5111300;28;20732;-59
2023/01/07 06:27:37;;;;;;;1.13;0.93;;;;;;;-0.02;100.00;100029.91;5111009;28;20690;-59
2023/01/07 06:30:05;;;;;;;0.47;0.43;;;;;;;0.06;100.00;100033.16;5111232;28;20221;-59
2023/01/07 06:32:32;;;;;;;1.33;1.23;;;;;;;0.10;100.00;100039.78;5111208;28;20225;-59
2023/01/07 06:34:59;;;;;;;2.73;1.00;;;;;;;0.09;100.00;100028.09;5111233;28;20309;-59
2023/01/07 06:37:25;;;;;;;0.47;0.47;;;;;;;0.06;100.00;100025.63;5110953;28;20587;-60
2023/01/07 06:39:52;;;;;;;0.70;0.63;;;;;;;0.08;100.00;100026.41;5111455;28;20244;-61
2023/01/07 06:42:20;;;;;;;2.17;1.27;;;;;;;0.16;100.00;100024.63;5111148;28;20281;-60
2023/01/07 06:44:47;;;;;;;1.33;1.23;;;;;;;0.17;100.00;100026.28;5111320;28;20220;-60
2023/01/07 06:47:14;;;;;;;0.93;0.60;;;;;;;0.22;100.00;100029.56;5111052;28;20200;-60
2023/01/07 06:49:41;;;;;;;0.97;0.97;;;;;;;0.24;100.00;100032.06;5110925;28;20475;-60
2023/01/07 06:52:08;;;;;;;0.70;0.70;;;;;;;0.35;100.00;100032.72;5110789;28;20220;-60
2023/01/07 06:54:36;;;;;;;0.63;0.63;;;;;;;0.41;100.00;100035.16;5110643;28;20607;-60
2023/01/07 06:57:03;;;;;;;2.73;0.70;;;;;;;0.51;100.00;100040.84;5110743;28;20677;-60
2023/01/07 06:59:31;;;;;;;1.40;0.80;;;;;;;0.63;100.00;100044.88;5111007;28;20217;-60
2023/01/07 07:01:58;;;;;;;0.57;0.57;;;;;;;0.77;100.00;100042.13;5110599;28;20205;-60
2023/01/07 07:04:25;;;;;;;0.47;0.47;;;;;;;0.93;100.00;100042.69;5110620;28;20213;-60
2023/01/07 07:06:51;;;;;;;0.67;0.67;;;;;;;1.13;100.00;100041.50;5110712;28;20605;-60
2023/01/07 07:09:18;;;;;;;0.57;0.57;;;;;;;1.35;100.00;100046.13;5110868;28;20213;-60
2023/01/07 07:11:45;;;;;;;1.73;1.30;;;;;;;1.66;100.00;100045.50;5110443;28;20208;-60
2023/01/07 07:14:12;;;;;;;1.60;0.77;;;;;;;1.86;100.00;100038.34;5110688;28;20225;-60
2023/01/07 07:16:40;;;;;;;0.97;0.97;;;;;;;2.13;100.00;100046.19;5110691;28;20193;-61
2023/01/07 07:19:07;;;;;;;1.00;0.90;;;;;;;2.32;100.00;100047.44;5110551;28;20224;-61
2023/01/07 07:21:34;;;;;;;0.80;0.80;;;;;;;2.55;100.00;100054.47;5110590;28;20212;-61
2023/01/07 07:24:01;;;;;;;0.57;0.57;;;;;;;2.85;100.00;100050.38;5110639;28;20239;-61
2023/01/07 07:26:28;;;;;;;1.47;0.90;;;;;;;3.18;100.00;100057.94;5110261;28;20216;-60
2023/01/07 07:28:55;;;;;;;1.90;1.27;;;;;;;3.35;100.00;100058.34;5110197;28;20218;-60
2023/01/07 07:31:21;;;;;;;1.87;1.73;;;;;;;3.48;100.00;100052.94;5110180;28;20194;-61
2023/01/07 07:33:50;;;;;;;0.97;0.87;;;;;;;3.68;99.00;100053.19;5110322;28;20237;-60
2023/01/07 07:36:16;;;;;;;0.73;0.40;;;;;;;3.78;98.49;100052.09;5110256;28;20216;-61
2023/01/07 07:38:43;;;;;;;1.40;0.67;;;;;;;3.76;97.92;100060.59;5109973;28;20623;-60
2023/01/07 07:41:10;;;;;;;2.13;1.20;;;;;;;4.01;97.28;100058.16;5110176;28;20238;-59
2023/01/07 07:43:37;;;;;;;0.90;0.90;;;;;;;4.18;96.10;100045.00;5110268;28;20731;-63
2023/01/07 07:46:05;;;;;;;3.00;2.23;;;;;;;4.23;95.87;100054.09;5110164;28;20208;-63
2023/01/07 07:48:32;;;;;;;2.73;1.23;;;;;;;4.37;95.83;100055.41;5110124;28;20224;-60
2023/01/07 07:51:00;;;;;;;0.90;0.83;;;;;;;4.57;95.40;100057.28;5109577;28;20204;-60
2023/01/07 07:53:27;;;;;;;1.37;1.27;;;;;;;4.54;94.93;100058.22;5109983;28;20236;-63
2023/01/07 07:55:54;;;;;;;1.23;1.17;;;;;;;4.76;94.92;100054.09;5110435;28;20189;-60
2023/01/07 07:58:21;;;;;;;0.90;0.90;;;;;;;4.93;94.36;100056.09;5110210;28;20213;-60
2023/01/07 08:00:47;;;;;;;1.10;1.10;;;;;;;5.02;93.93;100057.47;5110283;28;20212;-63
2023/01/07 08:03:14;;;;;;;0.90;0.90;;;;;;;5.08;93.13;100061.50;5110156;28;20248;-60
2023/01/07 08:05:43;;;;;;;1.30;1.07;;;;;;;5.13;93.05;100057.13;5110015;28;20206;-60
2023/01/07 08:08:14;;;;;;;0.70;0.70;;;;;;;5.40;91.86;100065.47;5109560;28;20200;-63
2023/01/07 08:10:41;;;;;;;1.23;1.13;;;;;;;5.61;91.07;100057.13;5109988;28;20189;-60
2023/01/07 08:13:09;;;;;;;2.03;1.33;;;;;;;5.87;90.33;100061.19;5109553;28;20228;-60
2023/01/07 08:15:37;;;;;;;0.80;0.80;;;;;;;6.13;88.93;100055.19;5110147;28;20201;-60
2023/01/07 08:18:06;;;;;;;3.27;1.87;;;;;;;6.27;88.70;100054.66;5109864;28;20203;-61
2023/01/07 08:20:35;;;;;;;2.03;1.43;;;;;;;6.46;87.68;100062.38;5109932;28;20200;-60
2023/01/07 08:23:04;;;;;;;4.20;1.47;;;;;;;6.96;86.77;100064.59;5109532;28;20205;-63
2023/01/07 08:25:33;;;;;;;1.50;1.40;;;;;;;7.34;85.25;100062.13;5109992;28;20231;-63
2023/01/07 08:28:01;;;;;;;2.50;2.30;;;;;;;7.59;82.85;100053.41;5109739;28;20217;-62
2023/01/07 08:30:29;;;;;;;1.90;1.80;;;;;;;7.62;81.87;100063.44;5109924;28;20197;-63
2023/01/07 08:32:57;;;;;;;1.90;1.53;;;;;;;7.66;81.12;100054.81;5109666;28;20728;-60
2023/01/07 08:35:24;;;;;;;1.53;1.17;;;;;;;7.79;80.97;100060.97;5109840;28;20205;-60
2023/01/07 08:37:51;;;;;;;2.37;1.73;;;;;;;7.94;79.73;100055.22;5109832;28;20201;-63
2023/01/07 08:40:18;;;;;;;0.97;0.80;;;;;;;7.89;79.89;100061.41;5109715;28;20217;-60
2023/01/07 08:42:46;;;;;;;1.20;1.10;;;;;;;8.05;78.49;100062.34;5109629;28;20197;-63
2023/01/07 08:45:13;;;;;;;1.73;1.17;;;;;;;8.38;78.67;100054.03;5110077;28;20762;-63
2023/01/07 08:47:40;;;;;;;2.63;1.57;;;;;;;8.75;77.25;100058.19;5109960;28;20204;-63
2023/01/07 08:50:07;;;;;;;1.63;1.03;;;;;;;8.96;77.59;100055.47;5109474;28;20220;-62
2023/01/07 08:52:34;;;;;;;2.10;1.67;;;;;;;9.01;76.31;100054.34;5109472;28;20221;-62
2023/01/07 08:55:01;;;;;;;2.93;1.70;;;;;;;9.00;76.54;100049.34;5109477;28;20225;-60
2023/01/07 08:57:28;;;;;;;1.53;1.30;;;;;;;8.29;78.36;100057.84;5109688;28;20205;-63
2023/01/07 08:59:56;;;;;;;1.73;1.63;;;;;;;8.43;78.53;100053.84;5109433;28;20228;-63
2023/01/07 09:02:23;;;;;;;2.07;1.63;;;;;;;8.63;76.95;100051.16;5112869;28;20197;-60
2023/01/07 09:04:50;;;;;;;2.33;1.50;;;;;;;8.59;77.23;100049.66;5113235;28;20217;-62
2023/01/07 09:07:16;;;;;;;2.17;1.27;;;;;;;8.78;76.53;100050.38;5113455;28;20193;-60
2023/01/07 09:09:43;;;;;;;2.33;1.53;;;;;;;9.16;76.83;100047.66;5113058;28;20232;-62
2023/01/07 09:12:10;;;;;;;2.77;1.80;;;;;;;9.08;76.63;100049.78;5113139;28;20208;-62
2023/01/07 09:14:37;;;;;;;2.23;1.60;;;;;;;8.97;76.86;100046.94;5113507;28;20256;-62
2023/01/07 09:17:05;;;;;;;2.00;1.23;;;;;;;8.09;79.27;100037.56;5112871;28;20200;-61
2023/01/07 09:19:32;;;;;;;2.17;1.47;;;;;;;8.10;80.57;100036.66;5113200;28;20217;-63
2023/01/07 09:21:59;;;;;;;3.03;1.43;;;;;;;8.66;79.56;100042.53;5112803;28;20213;-60
2023/01/07 09:24:26;;;;;;;1.03;0.93;;;;;;;9.26;77.41;100036.06;5112917;28;20224;-60
2023/01/07 09:26:53;;;;;;;2.37;1.50;;;;;;;9.40;76.60;100037.09;5113036;28;20193;-60
2023/01/07 09:29:19;;;;;;;1.83;1.47;;;;;;;9.66;75.74;100036.56;5112908;28;20227;-63
2023/01/07 09:31:46;;;;;;;3.57;1.40;;;;;;;10.39;72.98;100036.84;5112673;28;20205;-63
2023/01/07 09:34:15;;;;;;;2.43;1.60;;;;;;;10.41;71.37;100036.72;5112764;28;20241;-63
2023/01/07 09:36:41;;;;;;;4.10;2.27;;;;;;;9.97;72.03;100024.66;5112732;28;20201;-63
2023/01/07 09:39:10;;;;;;;5.07;2.37;;;;;;;9.44;73.27;100020.72;5112489;28;20728;-61
2023/01/07 09:41:47;;;;;;;3.13;1.97;;;;;;;9.50;74.38;100025.50;5112604;28;20207;-63
2023/01/07 09:44:22;;;;;;;2.33;1.70;;;;;;;9.24;75.05;100025.13;5111554;28;20243;-64
2023/01/07 09:46:50;;;;;;;2.90;1.93;;;;;;;9.52;74.19;100031.34;5112081;27;20200;-64
2023/01/07 09:49:19;;;;;;;1.77;1.53;;;;;;;9.80;72.87;100027.31;5112334;28;20218;-63
2023/01/07 09:51:49;;;;;;;2.23;1.77;;;;;;;10.44;71.72;100034.00;5112164;28;20291;-63
2023/01/07 09:54:29;;;;;;;2.03;1.47;;;;;;;11.08;70.27;100020.06;5111474;28;20237;-60
2023/01/07 09:56:57;;;;;;;1.90;1.53;;;;;;;11.06;69.08;100021.06;5111756;28;20202;-63
2023/01/07 09:59:24;;;;;;;5.00;2.53;;;;;;;11.40;68.27;100017.28;5112028;28;20224;-60
2023/01/07 10:01:57;;;;;;;3.07;2.10;;;;;;;11.41;67.67;100016.41;5111817;28;20677;-60
2023/01/07 10:04:33;;;;;;;4.93;2.80;;;;;;;11.44;66.91;100011.09;5111282;28;20224;-61
2023/01/07 10:07:09;;;;;;;4.63;2.53;;;;;;;12.14;67.16;100011.00;5111799;28;20192;-64
2023/01/07 10:09:48;;;;;;;4.67;2.70;;;;;;;12.31;63.63;100007.38;5111936;28;20217;-63
2023/01/07 10:12:25;;;;;;;4.17;2.63;;;;;;;12.04;62.90;99999.69;5111595;28;20625;-63
2023/01/07 10:15:15;;;;;;;5.57;3.00;;;;;;;11.86;62.71;100004.25;5111538;28;20229;-61
2023/01/07 10:18:13;;;;;;;3.87;2.30;;;;;;;12.55;63.62;99993.88;5111373;28;20197;-61
2023/01/07 10:20:48;;;;;;;4.13;1.83;;;;;;;12.78;61.80;99994.91;5111520;28;20220;-63
2023/01/07 10:23:22;;;;;;;4.33;2.43;;;;;;;13.26;59.96;99985.63;5111429;28;20232;-64
2023/01/07 10:25:51;;;;;;;2.03;1.77;;;;;;;12.88;59.24;99983.91;5111388;28;20675;-64
2023/01/07 10:28:25;;;;;;;3.57;1.70;;;;;;;12.82;60.88;99986.88;5112312;28;20210;-61
2023/01/07 10:30:52;;;;;;;3.93;2.07;;;;;;;13.09;57.09;99993.66;5111838;28;20690;-61
2023/01/07 10:33:23;;;;;;;3.83;2.17;;;;;;;11.93;60.72;99985.00;5111250;28;20234;-63
2023/01/07 10:36:00;;;;;;;5.93;2.40;;;;;;;11.61;62.46;99981.06;5111338;28;20201;-60
2023/01/07 10:38:32;;;;;;;3.73;2.13;;;;;;;11.30;62.64;99977.81;5111309;28;20781;-64
2023/01/07 10:41:04;;;;;;;4.33;2.53;;;;;;;11.75;64.90;99969.03;5111144;28;20197;-61
2023/01/07 10:43:45;;;;;;;3.53;2.00;;;;;;;12.09;60.43;99972.03;5107412;28;20732;-63
2023/01/07 10:46:25;;;;;;;3.40;1.77;;;;;;;12.51;59.80;99961.63;5099636;28;20194;-63
2023/01/07 10:49:13;;;;;;;3.50;2.27;;;;;;;12.05;60.38;99954.41;5107315;28;20231;-63
2023/01/07 10:51:55;;;;;;;3.23;1.80;;;;;;;12.99;59.42;99956.69;5110755;28;20249;-63
2023/01/07 10:54:51;;;;;;;1.57;1.47;;;;;;;12.89;59.01;99957.34;5110457;28;20243;-64
2023/01/07 10:57:21;;;;;;;2.57;1.43;;;;;;;13.61;55.95;99948.94;5108625;28;20206;-64
2023/01/07 10:59:50;;;;;;;4.13;2.43;;;;;;;13.71;54.62;99949.13;5110740;28;20228;-63
2023/01/07 11:02:20;;;;;;;3.20;2.13;;;;;;;13.94;54.66;99950.06;5110708;28;20218;-61
2023/01/07 11:04:47;;;;;;;3.33;2.17;;;;;;;14.21;53.42;99952.34;5111204;28;20224;-65
2023/01/07 11:07:26;;;;;;;2.93;2.23;;;;;;;14.61;53.08;99944.28;5110049;28;20672;-61
2023/01/07 11:09:54;;;;;;;3.97;2.77;;;;;;;14.26;54.21;99930.50;5110880;28;20260;-61
2023/01/07 11:12:32;;;;;;;3.10;2.43;;;;;;;14.23;53.07;99929.94;5111524;28;20262;-64
2023/01/07 11:15:03;;;;;;;2.93;1.90;;;;;;;14.36;52.73;99925.50;5110724;28;20233;-61
2023/01/07 11:17:35;;;;;;;2.30;1.60;;;;;;;14.69;52.46;99924.75;5110805;28;20209;-64
2023/01/07 11:20:03;;;;;;;3.00;2.17;;;;;;;14.35;52.72;99923.06;5110874;28;20334;-62
2023/01/07 11:22:33;;;;;;;4.47;2.40;;;;;;;14.16;53.15;99924.38;5110895;28;20201;-61
2023/01/07 11:25:01;;;;;;;5.37;2.33;;;;;;;14.03;53.36;99923.69;5109940;28;20721;-64
2023/01/07 11:27:31;;;;;;;3.07;1.97;;;;;;;14.00;53.14;99913.63;5110354;28;20200;-64
2023/01/07 11:30:02;;;;;;;3.07;1.93;;;;;;;14.41;51.96;99909.72;5109017;28;20228;-61
2023/01/07 11:32:31;;;;;;;4.67;2.40;;;;;;;14.17;52.60;99910.63;5110267;28;20258;-64
2023/01/07 11:35:00;;;;;;;3.73;2.70;;;;;;;13.51;53.55;99901.72;5110231;28;20237;-64
2023/01/07 11:37:34;;;;;;;3.93;2.33;;;;;;;13.72;54.62;99909.66;5110304;28;20522;-61
2023/01/07 11:40:05;;;;;;;3.23;2.27;;;;;;;13.55;53.48;99900.56;5110159;28;20603;-64
2023/01/07 11:42:41;;;;;;;3.23;2.00;;;;;;;13.55;55.53;99895.44;5110216;28;20189;-62
2023/01/07 11:45:13;;;;;;;3.57;2.47;;;;;;;13.73;54.47;99901.84;5110107;28;20238;-62
2023/01/07 11:47:46;;;;;;;3.90;2.87;;;;;;;13.54;54.66;99893.81;5110313;28;20211;-64